SAS461 ENGM-EKCH
Flight info
| Callsign | SAS461 |
|---|---|
| Flight time | 0h 54m |
| Altitude | 37000 |
| Route | OKSAT L996 KELIN DCT TOPLA L996 ERNOV |
| Aircraft | A319/M-SDE3FGHIRWY/LB1 |
Departure
| Time | 2026-05-05 10:18 |
|---|---|
| Airport | Oslo-Gardermoen International Airport (ENGM) |
Arrival
| Time | 2026-05-05 11:13 |
|---|---|
| Airport | Copenhagen Kastrup Airport (EKCH) |
| Time | Latitude | Longitude | Altitude | Speed | Heading |
|---|---|---|---|---|---|
| 2026-05-05 09:57 | 60.19347 | 11.10270 | 685 ft | 0 kts | 16° |
| 2026-05-05 10:09 | 60.19328 | 11.10259 | 683 ft | 3 kts | 16° |
| 2026-05-05 10:10 | 60.19308 | 11.10250 | 682 ft | 4 kts | 352° |
| 2026-05-05 10:10 | 60.19283 | 11.10267 | 683 ft | 4 kts | 334° |
| 2026-05-05 10:10 | 60.19260 | 11.10286 | 680 ft | 4 kts | 333° |
| 2026-05-05 10:10 | 60.19240 | 11.10318 | 683 ft | 4 kts | 300° |
| 2026-05-05 10:11 | 60.19231 | 11.10359 | 681 ft | 1 kts | 286° |
| 2026-05-05 10:11 | 60.19231 | 11.10360 | 681 ft | 0 kts | 286° |
| 2026-05-05 10:13 | 60.19233 | 11.10347 | 681 ft | 3 kts | 295° |
| 2026-05-05 10:13 | 60.19266 | 11.10327 | 682 ft | 7 kts | 20° |
| 2026-05-05 10:13 | 60.19265 | 11.10429 | 685 ft | 10 kts | 106° |
| 2026-05-05 10:14 | 60.19243 | 11.10579 | 683 ft | 13 kts | 106° |
| 2026-05-05 10:14 | 60.19217 | 11.10765 | 682 ft | 15 kts | 105° |
| 2026-05-05 10:14 | 60.19186 | 11.10978 | 685 ft | 16 kts | 106° |
| 2026-05-05 10:14 | 60.19181 | 11.11129 | 680 ft | 10 kts | 57° |
| 2026-05-05 10:15 | 60.19261 | 11.11189 | 685 ft | 15 kts | 16° |
| 2026-05-05 10:15 | 60.19383 | 11.11260 | 684 ft | 21 kts | 16° |
| 2026-05-05 10:15 | 60.19544 | 11.11353 | 682 ft | 26 kts | 16° |
| 2026-05-05 10:15 | 60.19731 | 11.11460 | 684 ft | 29 kts | 16° |
| 2026-05-05 10:16 | 60.19931 | 11.11577 | 682 ft | 30 kts | 16° |
| 2026-05-05 10:16 | 60.20100 | 11.11674 | 687 ft | 20 kts | 15° |
| 2026-05-05 10:16 | 60.20178 | 11.11764 | 685 ft | 12 kts | 76° |
| 2026-05-05 10:16 | 60.20153 | 11.11957 | 681 ft | 15 kts | 107° |
| 2026-05-05 10:17 | 60.20121 | 11.12140 | 685 ft | 13 kts | 122° |
| 2026-05-05 10:17 | 60.20061 | 11.12218 | 688 ft | 6 kts | 195° |
| 2026-05-05 10:17 | 60.20053 | 11.12212 | 686 ft | 0 kts | 198° |
| 2026-05-05 10:17 | 60.19993 | 11.12175 | 689 ft | 34 kts | 196° |
| 2026-05-05 10:18 | 60.19561 | 11.11924 | 684 ft | 94 kts | 196° |
| 2026-05-05 10:18 | 60.18752 | 11.11455 | 684 ft | 147 kts | 197° |
| 2026-05-05 10:18 | 60.17723 | 11.10845 | 1203 ft | 151 kts | 199° |
| 2026-05-05 10:18 | 60.16717 | 11.10264 | 1932 ft | 152 kts | 200° |
| 2026-05-05 10:19 | 60.15635 | 11.09637 | 2382 ft | 173 kts | 200° |
| 2026-05-05 10:19 | 60.14391 | 11.09014 | 2789 ft | 198 kts | 188° |
| 2026-05-05 10:19 | 60.12943 | 11.09558 | 3160 ft | 230 kts | 154° |
| 2026-05-05 10:19 | 60.11654 | 11.11744 | 3687 ft | 258 kts | 134° |
| 2026-05-05 10:20 | 60.10392 | 11.14439 | 4558 ft | 269 kts | 134° |
| 2026-05-05 10:20 | 60.09120 | 11.17169 | 5603 ft | 274 kts | 134° |
| 2026-05-05 10:20 | 60.07811 | 11.19972 | 6646 ft | 277 kts | 134° |
| 2026-05-05 10:20 | 60.06476 | 11.22811 | 7631 ft | 282 kts | 134° |
| 2026-05-05 10:21 | 60.05237 | 11.25895 | 8615 ft | 287 kts | 126° |
| 2026-05-05 10:21 | 60.04077 | 11.29182 | 9615 ft | 291 kts | 126° |
| 2026-05-05 10:21 | 60.03072 | 11.32731 | 10462 ft | 299 kts | 111° |
| 2026-05-05 10:21 | 60.02660 | 11.36953 | 10823 ft | 323 kts | 89° |
| 2026-05-05 10:22 | 60.03096 | 11.41481 | 11097 ft | 344 kts | 65° |
| 2026-05-05 10:22 | 60.04443 | 11.45529 | 11466 ft | 357 kts | 43° |
| 2026-05-05 10:22 | 60.05639 | 11.47914 | 11911 ft | 362 kts | 44° |
| 2026-05-05 10:22 | 60.07115 | 11.51994 | 12629 ft | 372 kts | 59° |
| 2026-05-05 10:23 | 60.08073 | 11.56873 | 13347 ft | 381 kts | 74° |
| 2026-05-05 10:23 | 60.08434 | 11.62176 | 14013 ft | 389 kts | 88° |
| 2026-05-05 10:23 | 60.08170 | 11.67612 | 14565 ft | 397 kts | 103° |
| 2026-05-05 10:23 | 60.07376 | 11.72957 | 15098 ft | 405 kts | 109° |
| 2026-05-05 10:24 | 60.06498 | 11.78372 | 15624 ft | 413 kts | 110° |
| 2026-05-05 10:24 | 60.05599 | 11.83879 | 16167 ft | 421 kts | 111° |
| 2026-05-05 10:24 | 60.04453 | 11.89289 | 16696 ft | 424 kts | 124° |
| 2026-05-05 10:24 | 60.02728 | 11.94046 | 17243 ft | 422 kts | 139° |
| 2026-05-05 10:25 | 60.00530 | 11.97865 | 17823 ft | 416 kts | 154° |
| 2026-05-05 10:25 | 59.98007 | 12.00576 | 18332 ft | 407 kts | 169° |
| 2026-05-05 10:25 | 59.95330 | 12.02073 | 18872 ft | 393 kts | 182° |
| 2026-05-05 10:25 | 59.92653 | 12.02413 | 19454 ft | 380 kts | 194° |
| 2026-05-05 10:26 | 59.90014 | 12.02112 | 19979 ft | 380 kts | 195° |
| 2026-05-05 10:26 | 59.87370 | 12.01801 | 20554 ft | 382 kts | 195° |
| 2026-05-05 10:26 | 59.84712 | 12.01492 | 21084 ft | 384 kts | 195° |
| 2026-05-05 10:26 | 59.82035 | 12.01180 | 21598 ft | 386 kts | 195° |
| 2026-05-05 10:27 | 59.79342 | 12.00867 | 22066 ft | 389 kts | 195° |
| 2026-05-05 10:27 | 59.76632 | 12.00556 | 22530 ft | 392 kts | 195° |
| 2026-05-05 10:27 | 59.73902 | 12.00248 | 23014 ft | 394 kts | 194° |
| 2026-05-05 10:27 | 59.71156 | 11.99942 | 23475 ft | 397 kts | 194° |
| 2026-05-05 10:28 | 59.68389 | 11.99637 | 23863 ft | 399 kts | 194° |
| 2026-05-05 10:28 | 59.65608 | 11.99335 | 24259 ft | 402 kts | 194° |
| 2026-05-05 10:28 | 59.62843 | 11.99036 | 24642 ft | 404 kts | 194° |
| 2026-05-05 10:28 | 59.60028 | 11.98728 | 24962 ft | 407 kts | 193° |
| 2026-05-05 10:29 | 59.57195 | 11.98413 | 25333 ft | 409 kts | 193° |
| 2026-05-05 10:29 | 59.54345 | 11.98093 | 25711 ft | 411 kts | 193° |
| 2026-05-05 10:29 | 59.51476 | 11.97773 | 26085 ft | 413 kts | 193° |
| 2026-05-05 10:29 | 59.48594 | 11.97450 | 26455 ft | 416 kts | 193° |
| 2026-05-05 10:30 | 59.45698 | 11.97125 | 26811 ft | 418 kts | 193° |
| 2026-05-05 10:30 | 59.42785 | 11.96801 | 27157 ft | 420 kts | 193° |
| 2026-05-05 10:30 | 59.39859 | 11.96475 | 27481 ft | 422 kts | 193° |
| 2026-05-05 10:30 | 59.36918 | 11.96148 | 27827 ft | 424 kts | 193° |
| 2026-05-05 10:31 | 59.33961 | 11.95822 | 28164 ft | 427 kts | 193° |
| 2026-05-05 10:31 | 59.30992 | 11.95494 | 28395 ft | 429 kts | 192° |
| 2026-05-05 10:31 | 59.27998 | 11.95163 | 28694 ft | 432 kts | 192° |
| 2026-05-05 10:31 | 59.24989 | 11.94835 | 29003 ft | 434 kts | 192° |
| 2026-05-05 10:32 | 59.21975 | 11.94512 | 29438 ft | 433 kts | 192° |
| 2026-05-05 10:32 | 59.18969 | 11.94199 | 29906 ft | 432 kts | 192° |
| 2026-05-05 10:32 | 59.15968 | 11.93889 | 30314 ft | 431 kts | 192° |
| 2026-05-05 10:32 | 59.12976 | 11.93577 | 30691 ft | 430 kts | 192° |
| 2026-05-05 10:33 | 59.09991 | 11.93264 | 31063 ft | 430 kts | 192° |
| 2026-05-05 10:33 | 59.07006 | 11.92943 | 31440 ft | 429 kts | 192° |
| 2026-05-05 10:33 | 59.04067 | 11.92622 | 31735 ft | 429 kts | 192° |
| 2026-05-05 10:33 | 59.01089 | 11.92301 | 32124 ft | 428 kts | 192° |
| 2026-05-05 10:34 | 58.98110 | 11.91979 | 32528 ft | 428 kts | 192° |
| 2026-05-05 10:34 | 58.95142 | 11.91655 | 32924 ft | 427 kts | 192° |
| 2026-05-05 10:34 | 58.92183 | 11.91331 | 33344 ft | 426 kts | 192° |
| 2026-05-05 10:34 | 58.89225 | 11.91007 | 33743 ft | 425 kts | 192° |
| 2026-05-05 10:35 | 58.86271 | 11.90691 | 34099 ft | 425 kts | 191° |
| 2026-05-05 10:35 | 58.83311 | 11.90376 | 34398 ft | 425 kts | 191° |
| 2026-05-05 10:35 | 58.80329 | 11.90387 | 34681 ft | 435 kts | 183° |
| 2026-05-05 10:35 | 58.77294 | 11.91158 | 34958 ft | 440 kts | 180° |
| 2026-05-05 10:36 | 58.74255 | 11.91997 | 35199 ft | 441 kts | 180° |
| 2026-05-05 10:36 | 58.71216 | 11.92832 | 35477 ft | 442 kts | 180° |
| 2026-05-05 10:36 | 58.68168 | 11.93667 | 35741 ft | 443 kts | 180° |
| 2026-05-05 10:36 | 58.65149 | 11.94488 | 35987 ft | 444 kts | 180° |
| 2026-05-05 10:37 | 58.62090 | 11.95314 | 36218 ft | 445 kts | 179° |
| 2026-05-05 10:37 | 58.59025 | 11.96139 | 36466 ft | 446 kts | 179° |
| 2026-05-05 10:37 | 58.55949 | 11.96966 | 36712 ft | 447 kts | 179° |
| 2026-05-05 10:37 | 58.52867 | 11.97794 | 36895 ft | 448 kts | 179° |
| 2026-05-05 10:38 | 58.46706 | 11.99448 | 36901 ft | 447 kts | 179° |
| 2026-05-05 10:38 | 58.40551 | 12.01103 | 36939 ft | 446 kts | 179° |
| 2026-05-05 10:39 | 58.34414 | 12.02758 | 36934 ft | 445 kts | 179° |
| 2026-05-05 10:39 | 58.28276 | 12.04397 | 36934 ft | 445 kts | 179° |
| 2026-05-05 10:40 | 58.22142 | 12.06019 | 36937 ft | 445 kts | 179° |
| 2026-05-05 10:40 | 58.16012 | 12.07636 | 36934 ft | 445 kts | 179° |
| 2026-05-05 10:41 | 58.09880 | 12.09248 | 36937 ft | 445 kts | 179° |
| 2026-05-05 10:41 | 58.03752 | 12.10850 | 36936 ft | 445 kts | 179° |
| 2026-05-05 10:42 | 57.94590 | 12.13248 | 36938 ft | 445 kts | 179° |
| 2026-05-05 10:43 | 57.88461 | 12.14833 | 36908 ft | 444 kts | 179° |
| 2026-05-05 10:43 | 57.82337 | 12.16415 | 36929 ft | 444 kts | 179° |
| 2026-05-05 10:44 | 57.76214 | 12.18006 | 36938 ft | 444 kts | 179° |
| 2026-05-05 10:44 | 57.70096 | 12.19580 | 36891 ft | 443 kts | 179° |
| 2026-05-05 10:45 | 57.63984 | 12.21140 | 36940 ft | 443 kts | 179° |
| 2026-05-05 10:45 | 57.57878 | 12.22714 | 36938 ft | 443 kts | 179° |
| 2026-05-05 10:46 | 57.51761 | 12.24280 | 36950 ft | 443 kts | 179° |
| 2026-05-05 10:46 | 57.45654 | 12.25820 | 36955 ft | 443 kts | 179° |
| 2026-05-05 10:47 | 57.39549 | 12.27370 | 36937 ft | 443 kts | 179° |
| 2026-05-05 10:47 | 57.36483 | 12.28152 | 36556 ft | 444 kts | 179° |
| 2026-05-05 10:47 | 57.33417 | 12.28925 | 35860 ft | 447 kts | 179° |
| 2026-05-05 10:47 | 57.30371 | 12.29682 | 35128 ft | 449 kts | 179° |
| 2026-05-05 10:48 | 57.27271 | 12.30451 | 34420 ft | 450 kts | 179° |
| 2026-05-05 10:48 | 57.24165 | 12.31227 | 33694 ft | 450 kts | 179° |
| 2026-05-05 10:48 | 57.21060 | 12.32006 | 32919 ft | 450 kts | 179° |
| 2026-05-05 10:48 | 57.17958 | 12.32787 | 32168 ft | 449 kts | 179° |
| 2026-05-05 10:49 | 57.14868 | 12.33564 | 31437 ft | 448 kts | 179° |
| 2026-05-05 10:49 | 57.11781 | 12.34339 | 30696 ft | 447 kts | 179° |
| 2026-05-05 10:49 | 57.08708 | 12.35112 | 29960 ft | 446 kts | 179° |
| 2026-05-05 10:49 | 57.05632 | 12.35885 | 29085 ft | 446 kts | 179° |
| 2026-05-05 10:50 | 57.02552 | 12.36650 | 28205 ft | 447 kts | 179° |
| 2026-05-05 10:50 | 56.99466 | 12.37411 | 27396 ft | 449 kts | 179° |
| 2026-05-05 10:50 | 56.96365 | 12.38171 | 26610 ft | 450 kts | 179° |
| 2026-05-05 10:50 | 56.93252 | 12.38934 | 25847 ft | 452 kts | 179° |
| 2026-05-05 10:51 | 56.90122 | 12.39702 | 25063 ft | 453 kts | 179° |
| 2026-05-05 10:51 | 56.87012 | 12.40474 | 24278 ft | 449 kts | 179° |
| 2026-05-05 10:51 | 56.83932 | 12.41246 | 23518 ft | 444 kts | 179° |
| 2026-05-05 10:51 | 56.80917 | 12.41996 | 22596 ft | 440 kts | 179° |
| 2026-05-05 10:52 | 56.77898 | 12.42742 | 21690 ft | 435 kts | 179° |
| 2026-05-05 10:52 | 56.74916 | 12.43474 | 20804 ft | 430 kts | 178° |
| 2026-05-05 10:52 | 56.71964 | 12.44199 | 20010 ft | 425 kts | 178° |
| 2026-05-05 10:52 | 56.69047 | 12.44912 | 19273 ft | 421 kts | 178° |
| 2026-05-05 10:53 | 56.66124 | 12.45621 | 18544 ft | 417 kts | 178° |
| 2026-05-05 10:53 | 56.63261 | 12.46308 | 17774 ft | 413 kts | 178° |
| 2026-05-05 10:53 | 56.60426 | 12.46986 | 16967 ft | 409 kts | 178° |
| 2026-05-05 10:53 | 56.57621 | 12.47662 | 16221 ft | 405 kts | 178° |
| 2026-05-05 10:54 | 56.54844 | 12.48330 | 15551 ft | 401 kts | 178° |
| 2026-05-05 10:54 | 56.52089 | 12.48990 | 15008 ft | 398 kts | 178° |
| 2026-05-05 10:54 | 56.49355 | 12.49645 | 14466 ft | 395 kts | 178° |
| 2026-05-05 10:54 | 56.46670 | 12.50287 | 13909 ft | 392 kts | 178° |
| 2026-05-05 10:55 | 56.43971 | 12.50931 | 13330 ft | 390 kts | 178° |
| 2026-05-05 10:55 | 56.41291 | 12.51576 | 12740 ft | 387 kts | 177° |
| 2026-05-05 10:55 | 56.38629 | 12.52222 | 12192 ft | 385 kts | 177° |
| 2026-05-05 10:55 | 56.36005 | 12.52859 | 11732 ft | 375 kts | 177° |
| 2026-05-05 10:56 | 56.33478 | 12.53470 | 11470 ft | 358 kts | 178° |
| 2026-05-05 10:56 | 56.31065 | 12.54054 | 11274 ft | 342 kts | 178° |
| 2026-05-05 10:56 | 56.28760 | 12.54612 | 11126 ft | 326 kts | 178° |
| 2026-05-05 10:56 | 56.26553 | 12.55140 | 10939 ft | 314 kts | 178° |
| 2026-05-05 10:57 | 56.24414 | 12.55649 | 10712 ft | 306 kts | 179° |
| 2026-05-05 10:57 | 56.22323 | 12.56142 | 10463 ft | 299 kts | 179° |
| 2026-05-05 10:57 | 56.20284 | 12.56619 | 10201 ft | 293 kts | 179° |
| 2026-05-05 10:57 | 56.18280 | 12.57086 | 9952 ft | 288 kts | 178° |
| 2026-05-05 10:58 | 56.16314 | 12.57168 | 9694 ft | 278 kts | 193° |
| 2026-05-05 10:58 | 56.14411 | 12.56613 | 9427 ft | 277 kts | 195° |
| 2026-05-05 10:58 | 56.12536 | 12.56045 | 9195 ft | 276 kts | 194° |
| 2026-05-05 10:58 | 56.10639 | 12.55462 | 8982 ft | 276 kts | 194° |
| 2026-05-05 10:59 | 56.08745 | 12.54877 | 8768 ft | 276 kts | 194° |
| 2026-05-05 10:59 | 56.06852 | 12.54294 | 8558 ft | 276 kts | 194° |
| 2026-05-05 10:59 | 56.04958 | 12.53716 | 8349 ft | 276 kts | 194° |
| 2026-05-05 10:59 | 56.03065 | 12.53142 | 8146 ft | 276 kts | 194° |
| 2026-05-05 11:00 | 56.01173 | 12.52569 | 7934 ft | 276 kts | 194° |
| 2026-05-05 11:00 | 55.99284 | 12.51999 | 7726 ft | 276 kts | 193° |
| 2026-05-05 11:00 | 55.97391 | 12.51429 | 7528 ft | 276 kts | 193° |
| 2026-05-05 11:00 | 55.95499 | 12.50854 | 7324 ft | 276 kts | 193° |
| 2026-05-05 11:01 | 55.93615 | 12.50279 | 7138 ft | 275 kts | 193° |
| 2026-05-05 11:01 | 55.91734 | 12.49709 | 6990 ft | 272 kts | 193° |
| 2026-05-05 11:01 | 55.89874 | 12.49146 | 6841 ft | 271 kts | 193° |
| 2026-05-05 11:01 | 55.88014 | 12.48586 | 6693 ft | 271 kts | 193° |
| 2026-05-05 11:02 | 55.86159 | 12.48029 | 6547 ft | 271 kts | 193° |
| 2026-05-05 11:02 | 55.84303 | 12.47471 | 6399 ft | 270 kts | 193° |
| 2026-05-05 11:02 | 55.82450 | 12.46913 | 6265 ft | 270 kts | 193° |
| 2026-05-05 11:02 | 55.80594 | 12.46355 | 5910 ft | 271 kts | 192° |
| 2026-05-05 11:03 | 55.78729 | 12.45795 | 5513 ft | 272 kts | 192° |
| 2026-05-05 11:03 | 55.76871 | 12.45237 | 5132 ft | 269 kts | 192° |
| 2026-05-05 11:03 | 55.75042 | 12.44689 | 4811 ft | 264 kts | 192° |
| 2026-05-05 11:03 | 55.73241 | 12.44150 | 4525 ft | 260 kts | 192° |
| 2026-05-05 11:04 | 55.71472 | 12.43622 | 4295 ft | 256 kts | 192° |
| 2026-05-05 11:04 | 55.69729 | 12.43102 | 4059 ft | 252 kts | 192° |
| 2026-05-05 11:04 | 55.68040 | 12.42598 | 3851 ft | 247 kts | 191° |
| 2026-05-05 11:04 | 55.66347 | 12.42094 | 3670 ft | 246 kts | 191° |
| 2026-05-05 11:05 | 55.64656 | 12.41593 | 3491 ft | 246 kts | 191° |
| 2026-05-05 11:05 | 55.62980 | 12.41094 | 3285 ft | 242 kts | 191° |
| 2026-05-05 11:05 | 55.61346 | 12.40531 | 3111 ft | 236 kts | 198° |
| 2026-05-05 11:05 | 55.59857 | 12.39473 | 2952 ft | 227 kts | 210° |
| 2026-05-05 11:06 | 55.58566 | 12.37937 | 2789 ft | 222 kts | 222° |
| 2026-05-05 11:06 | 55.57405 | 12.36139 | 2583 ft | 221 kts | 223° |
| 2026-05-05 11:06 | 55.56248 | 12.34359 | 2443 ft | 221 kts | 223° |
| 2026-05-05 11:06 | 55.55046 | 12.32737 | 2300 ft | 216 kts | 206° |
| 2026-05-05 11:07 | 55.53581 | 12.32356 | 2171 ft | 215 kts | 169° |
| 2026-05-05 11:07 | 55.52250 | 12.33358 | 2075 ft | 205 kts | 148° |
| 2026-05-05 11:07 | 55.51049 | 12.34709 | 1984 ft | 204 kts | 145° |
| 2026-05-05 11:07 | 55.49868 | 12.36085 | 1991 ft | 203 kts | 145° |
| 2026-05-05 11:08 | 55.48700 | 12.37481 | 1992 ft | 203 kts | 142° |
| 2026-05-05 11:08 | 55.47890 | 12.39451 | 1995 ft | 200 kts | 105° |
| 2026-05-05 11:08 | 55.47844 | 12.41835 | 1997 ft | 195 kts | 72° |
| 2026-05-05 11:08 | 55.48497 | 12.43858 | 1995 ft | 190 kts | 41° |
| 2026-05-05 11:09 | 55.49462 | 12.45352 | 2022 ft | 184 kts | 38° |
| 2026-05-05 11:09 | 55.50414 | 12.46807 | 1991 ft | 180 kts | 39° |
| 2026-05-05 11:09 | 55.51353 | 12.48245 | 1965 ft | 178 kts | 38° |
| 2026-05-05 11:09 | 55.52284 | 12.49674 | 1842 ft | 174 kts | 38° |
| 2026-05-05 11:10 | 55.53162 | 12.51025 | 1645 ft | 163 kts | 38° |
| 2026-05-05 11:10 | 55.53988 | 12.52295 | 1444 ft | 149 kts | 39° |
| 2026-05-05 11:10 | 55.54720 | 12.53422 | 1256 ft | 133 kts | 38° |
| 2026-05-05 11:10 | 55.55399 | 12.54467 | 1077 ft | 127 kts | 39° |
| 2026-05-05 11:11 | 55.56060 | 12.55484 | 905 ft | 126 kts | 38° |
| 2026-05-05 11:11 | 55.56718 | 12.56496 | 718 ft | 125 kts | 39° |
| 2026-05-05 11:11 | 55.57372 | 12.57505 | 553 ft | 124 kts | 38° |
| 2026-05-05 11:11 | 55.58026 | 12.58512 | 381 ft | 124 kts | 39° |
| 2026-05-05 11:12 | 55.58464 | 12.59190 | 249 ft | 123 kts | 39° |
| 2026-05-05 11:12 | 55.59107 | 12.60179 | 115 ft | 122 kts | 37° |
| 2026-05-05 11:12 | 55.59719 | 12.61115 | 23 ft | 101 kts | 42° |
| 2026-05-05 11:12 | 55.60127 | 12.61747 | 27 ft | 59 kts | 41° |
| 2026-05-05 11:13 | 55.60418 | 12.62201 | 24 ft | 45 kts | 40° |
| 2026-05-05 11:13 | 55.60652 | 12.62355 | 25 ft | 38 kts | 11° |
| 2026-05-05 11:13 | 55.60860 | 12.62504 | 24 ft | 30 kts | 41° |
| 2026-05-05 11:13 | 55.61025 | 12.62758 | 24 ft | 33 kts | 41° |
| 2026-05-05 11:14 | 55.61187 | 12.63010 | 24 ft | 31 kts | 41° |
| 2026-05-05 11:14 | 55.61351 | 12.63264 | 24 ft | 30 kts | 41° |
| 2026-05-05 11:14 | 55.61515 | 12.63520 | 25 ft | 30 kts | 42° |
| 2026-05-05 11:14 | 55.61679 | 12.63772 | 24 ft | 33 kts | 41° |
| 2026-05-05 11:15 | 55.61844 | 12.64030 | 25 ft | 22 kts | 41° |
| 2026-05-05 11:15 | 55.61984 | 12.64163 | 24 ft | 25 kts | 24° |
| 2026-05-05 11:15 | 55.62153 | 12.64304 | 23 ft | 29 kts | 25° |
| 2026-05-05 11:15 | 55.62354 | 12.64433 | 24 ft | 32 kts | 13° |
| 2026-05-05 11:16 | 55.62492 | 12.64483 | 24 ft | 11 kts | 341° |
| 2026-05-05 11:16 | 55.62546 | 12.64349 | 24 ft | 15 kts | 303° |
| 2026-05-05 11:16 | 55.62612 | 12.64264 | 24 ft | 12 kts | 19° |
| 2026-05-05 11:16 | 55.62692 | 12.64331 | 24 ft | 13 kts | 21° |
| 2026-05-05 11:17 | 55.62763 | 12.64399 | 25 ft | 6 kts | 67° |
| 2026-05-05 11:17 | 55.62758 | 12.64449 | 24 ft | 4 kts | 99° |
| 2026-05-05 11:17 | 55.62756 | 12.64476 | 24 ft | 0 kts | 98° |